sensor_id;sensor_type;location;lat;lon;timestamp;P1;durP1;ratioP1;P2;durP2;ratioP2
13683;SDS011;6914;53.552;9.908;2022-08-18T00:01:03;4.17;;;3.87;;
13683;SDS011;6914;53.552;9.908;2022-08-18T00:03:31;4.00;;;3.80;;
13683;SDS011;6914;53.552;9.908;2022-08-18T00:05:58;5.03;;;4.70;;
13683;SDS011;6914;53.552;9.908;2022-08-18T00:08:24;8.30;;;4.30;;
13683;SDS011;6914;53.552;9.908;2022-08-18T00:10:53;4.63;;;4.43;;
13683;SDS011;6914;53.552;9.908;2022-08-18T00:13:20;10.60;;;5.10;;
13683;SDS011;6914;53.552;9.908;2022-08-18T00:15:47;5.20;;;5.00;;
13683;SDS011;6914;53.552;9.908;2022-08-18T00:18:15;7.77;;;6.20;;
13683;SDS011;6914;53.552;9.908;2022-08-18T00:20:42;6.00;;;5.60;;
13683;SDS011;6914;53.552;9.908;2022-08-18T00:23:08;7.03;;;6.33;;
13683;SDS011;6914;53.552;9.908;2022-08-18T00:25:35;6.10;;;5.70;;
13683;SDS011;6914;53.552;9.908;2022-08-18T00:28:02;6.23;;;5.73;;
13683;SDS011;6914;53.552;9.908;2022-08-18T00:30:30;6.50;;;6.10;;
13683;SDS011;6914;53.552;9.908;2022-08-18T00:32:57;6.83;;;6.40;;
13683;SDS011;6914;53.552;9.908;2022-08-18T00:35:27;6.50;;;6.10;;
13683;SDS011;6914;53.552;9.908;2022-08-18T00:37:57;7.23;;;6.57;;
13683;SDS011;6914;53.552;9.908;2022-08-18T00:40:28;6.70;;;6.20;;
13683;SDS011;6914;53.552;9.908;2022-08-18T00:42:59;7.50;;;6.80;;
13683;SDS011;6914;53.552;9.908;2022-08-18T00:45:30;7.57;;;6.87;;
13683;SDS011;6914;53.552;9.908;2022-08-18T00:48:00;10.23;;;7.33;;
13683;SDS011;6914;53.552;9.908;2022-08-18T00:50:30;8.13;;;7.67;;
13683;SDS011;6914;53.552;9.908;2022-08-18T00:52:59;7.00;;;6.50;;
13683;SDS011;6914;53.552;9.908;2022-08-18T00:55:30;8.57;;;7.87;;
13683;SDS011;6914;53.552;9.908;2022-08-18T00:58:02;8.40;;;7.80;;
13683;SDS011;6914;53.552;9.908;2022-08-18T01:00:32;14.03;;;9.63;;
13683;SDS011;6914;53.552;9.908;2022-08-18T01:03:03;8.70;;;7.90;;
13683;SDS011;6914;53.552;9.908;2022-08-18T01:05:35;8.40;;;7.80;;
13683;SDS011;6914;53.552;9.908;2022-08-18T01:08:07;9.00;;;8.47;;
13683;SDS011;6914;53.552;9.908;2022-08-18T01:10:39;9.13;;;8.53;;
13683;SDS011;6914;53.552;9.908;2022-08-18T01:13:06;14.20;;;8.90;;
13683;SDS011;6914;53.552;9.908;2022-08-18T01:15:34;10.00;;;9.20;;
13683;SDS011;6914;53.552;9.908;2022-08-18T01:18:04;9.43;;;8.63;;
13683;SDS011;6914;53.552;9.908;2022-08-18T01:20:53;11.63;;;10.47;;
13683;SDS011;6914;53.552;9.908;2022-08-18T01:23:44;11.03;;;9.93;;
13683;SDS011;6914;53.552;9.908;2022-08-18T01:26:12;11.77;;;10.87;;
13683;SDS011;6914;53.552;9.908;2022-08-18T01:28:41;13.63;;;10.50;;
13683;SDS011;6914;53.552;9.908;2022-08-18T01:31:10;13.73;;;12.53;;
13683;SDS011;6914;53.552;9.908;2022-08-18T01:33:39;12.20;;;11.20;;
13683;SDS011;6914;53.552;9.908;2022-08-18T01:36:09;12.87;;;11.57;;
13683;SDS011;6914;53.552;9.908;2022-08-18T01:38:40;13.00;;;11.90;;
13683;SDS011;6914;53.552;9.908;2022-08-18T01:41:09;14.70;;;13.30;;
13683;SDS011;6914;53.552;9.908;2022-08-18T01:43:36;14.67;;;13.27;;
13683;SDS011;6914;53.552;9.908;2022-08-18T01:46:03;14.50;;;13.30;;
13683;SDS011;6914;53.552;9.908;2022-08-18T01:48:31;14.67;;;13.27;;
13683;SDS011;6914;53.552;9.908;2022-08-18T01:50:59;15.80;;;13.43;;
13683;SDS011;6914;53.552;9.908;2022-08-18T01:53:26;15.37;;;13.80;;
13683;SDS011;6914;53.552;9.908;2022-08-18T01:55:53;17.50;;;12.47;;
13683;SDS011;6914;53.552;9.908;2022-08-18T01:58:22;12.90;;;11.70;;
13683;SDS011;6914;53.552;9.908;2022-08-18T02:00:52;14.60;;;13.20;;
13683;SDS011;6914;53.552;9.908;2022-08-18T02:03:20;13.70;;;12.20;;
13683;SDS011;6914;53.552;9.908;2022-08-18T02:05:51;15.60;;;13.17;;
13683;SDS011;6914;53.552;9.908;2022-08-18T02:08:20;13.90;;;12.73;;
13683;SDS011;6914;53.552;9.908;2022-08-18T02:10:47;17.80;;;12.93;;
13683;SDS011;6914;53.552;9.908;2022-08-18T02:13:14;14.80;;;13.40;;
13683;SDS011;6914;53.552;9.908;2022-08-18T02:15:43;17.40;;;14.87;;
13683;SDS011;6914;53.552;9.908;2022-08-18T02:18:12;17.17;;;15.47;;
13683;SDS011;6914;53.552;9.908;2022-08-18T02:20:39;17.30;;;15.60;;
13683;SDS011;6914;53.552;9.908;2022-08-18T02:23:07;19.33;;;15.53;;
13683;SDS011;6914;53.552;9.908;2022-08-18T02:25:34;18.40;;;13.93;;
13683;SDS011;6914;53.552;9.908;2022-08-18T02:28:01;16.23;;;14.67;;
13683;SDS011;6914;53.552;9.908;2022-08-18T02:30:28;17.17;;;14.97;;
13683;SDS011;6914;53.552;9.908;2022-08-18T02:32:57;20.50;;;16.50;;
13683;SDS011;6914;53.552;9.908;2022-08-18T02:35:24;16.40;;;14.83;;
13683;SDS011;6914;53.552;9.908;2022-08-18T02:37:50;16.30;;;15.00;;
13683;SDS011;6914;53.552;9.908;2022-08-18T02:40:18;18.27;;;15.80;;
13683;SDS011;6914;53.552;9.908;2022-08-18T02:42:45;16.80;;;15.07;;
13683;SDS011;6914;53.552;9.908;2022-08-18T02:45:12;29.03;;;19.57;;
13683;SDS011;6914;53.552;9.908;2022-08-18T02:47:39;19.70;;;17.60;;
13683;SDS011;6914;53.552;9.908;2022-08-18T02:50:09;18.40;;;16.67;;
13683;SDS011;6914;53.552;9.908;2022-08-18T02:52:36;17.90;;;15.73;;
13683;SDS011;6914;53.552;9.908;2022-08-18T02:55:03;20.37;;;18.10;;
13683;SDS011;6914;53.552;9.908;2022-08-18T02:57:30;25.67;;;18.43;;
13683;SDS011;6914;53.552;9.908;2022-08-18T02:59:58;24.23;;;15.97;;
13683;SDS011;6914;53.552;9.908;2022-08-18T03:02:25;18.60;;;16.80;;
13683;SDS011;6914;53.552;9.908;2022-08-18T03:04:52;17.10;;;15.33;;
13683;SDS011;6914;53.552;9.908;2022-08-18T03:07:20;16.50;;;14.90;;
13683;SDS011;6914;53.552;9.908;2022-08-18T03:09:48;17.37;;;15.30;;
13683;SDS011;6914;53.552;9.908;2022-08-18T03:12:15;15.67;;;14.07;;
13683;SDS011;6914;53.552;9.908;2022-08-18T03:14:41;20.13;;;15.43;;
13683;SDS011;6914;53.552;9.908;2022-08-18T03:17:08;17.93;;;16.07;;
13683;SDS011;6914;53.552;9.908;2022-08-18T03:19:35;16.97;;;15.27;;
13683;SDS011;6914;53.552;9.908;2022-08-18T03:22:02;17.53;;;15.33;;
13683;SDS011;6914;53.552;9.908;2022-08-18T03:24:32;21.90;;;15.17;;
13683;SDS011;6914;53.552;9.908;2022-08-18T03:27:02;18.80;;;16.70;;
13683;SDS011;6914;53.552;9.908;2022-08-18T03:29:30;17.37;;;15.53;;
13683;SDS011;6914;53.552;9.908;2022-08-18T03:31:58;21.17;;;16.87;;
13683;SDS011;6914;53.552;9.908;2022-08-18T03:34:25;17.93;;;15.90;;
13683;SDS011;6914;53.552;9.908;2022-08-18T03:36:52;17.07;;;15.30;;
13683;SDS011;6914;53.552;9.908;2022-08-18T03:39:19;17.83;;;16.03;;
13683;SDS011;6914;53.552;9.908;2022-08-18T03:41:49;16.50;;;14.80;;
13683;SDS011;6914;53.552;9.908;2022-08-18T03:44:18;19.93;;;17.13;;
13683;SDS011;6914;53.552;9.908;2022-08-18T03:46:47;18.47;;;15.50;;
13683;SDS011;6914;53.552;9.908;2022-08-18T03:49:15;18.93;;;15.67;;
13683;SDS011;6914;53.552;9.908;2022-08-18T03:51:43;22.40;;;13.63;;
13683;SDS011;6914;53.552;9.908;2022-08-18T03:54:12;18.20;;;14.57;;
13683;SDS011;6914;53.552;9.908;2022-08-18T03:56:40;19.60;;;15.97;;
13683;SDS011;6914;53.552;9.908;2022-08-18T03:59:10;17.90;;;14.93;;
13683;SDS011;6914;53.552;9.908;2022-08-18T04:01:41;16.73;;;13.77;;
13683;SDS011;6914;53.552;9.908;2022-08-18T04:04:09;21.40;;;13.57;;
13683;SDS011;6914;53.552;9.908;2022-08-18T04:06:39;19.50;;;15.03;;
13683;SDS011;6914;53.552;9.908;2022-08-18T04:09:09;20.07;;;14.70;;
13683;SDS011;6914;53.552;9.908;2022-08-18T04:11:38;18.00;;;16.30;;
13683;SDS011;6914;53.552;9.908;2022-08-18T04:14:07;21.00;;;16.80;;
13683;SDS011;6914;53.552;9.908;2022-08-18T04:16:36;17.77;;;16.17;;
13683;SDS011;6914;53.552;9.908;2022-08-18T04:19:03;18.17;;;16.27;;
13683;SDS011;6914;53.552;9.908;2022-08-18T04:21:31;19.13;;;15.67;;
13683;SDS011;6914;53.552;9.908;2022-08-18T04:24:00;20.13;;;18.07;;
13683;SDS011;6914;53.552;9.908;2022-08-18T04:26:29;21.00;;;17.97;;
13683;SDS011;6914;53.552;9.908;2022-08-18T04:28:57;20.60;;;15.97;;
13683;SDS011;6914;53.552;9.908;2022-08-18T04:31:24;26.07;;;18.03;;
13683;SDS011;6914;53.552;9.908;2022-08-18T04:33:52;20.60;;;18.40;;
13683;SDS011;6914;53.552;9.908;2022-08-18T04:36:20;21.00;;;18.80;;
13683;SDS011;6914;53.552;9.908;2022-08-18T04:38:47;24.70;;;17.83;;
13683;SDS011;6914;53.552;9.908;2022-08-18T04:41:15;21.00;;;18.17;;
13683;SDS011;6914;53.552;9.908;2022-08-18T04:43:42;19.00;;;17.20;;
13683;SDS011;6914;53.552;9.908;2022-08-18T04:46:09;20.33;;;17.37;;
13683;SDS011;6914;53.552;9.908;2022-08-18T04:48:37;23.10;;;17.30;;
13683;SDS011;6914;53.552;9.908;2022-08-18T04:51:07;19.97;;;17.93;;
13683;SDS011;6914;53.552;9.908;2022-08-18T04:53:35;22.50;;;18.63;;
13683;SDS011;6914;53.552;9.908;2022-08-18T04:56:17;19.50;;;17.20;;
13683;SDS011;6914;53.552;9.908;2022-08-18T04:58:49;18.20;;;16.50;;
13683;SDS011;6914;53.552;9.908;2022-08-18T05:01:17;20.67;;;16.23;;
13683;SDS011;6914;53.552;9.908;2022-08-18T05:03:45;19.93;;;17.33;;
13683;SDS011;6914;53.552;9.908;2022-08-18T05:06:14;20.70;;;18.60;;
13683;SDS011;6914;53.552;9.908;2022-08-18T05:08:45;18.07;;;16.13;;
13683;SDS011;6914;53.552;9.908;2022-08-18T05:11:14;20.73;;;17.40;;
13683;SDS011;6914;53.552;9.908;2022-08-18T05:13:41;18.90;;;15.30;;
13683;SDS011;6914;53.552;9.908;2022-08-18T05:16:08;20.40;;;16.30;;
13683;SDS011;6914;53.552;9.908;2022-08-18T05:18:35;21.70;;;14.83;;
13683;SDS011;6914;53.552;9.908;2022-08-18T05:21:05;17.37;;;15.63;;
13683;SDS011;6914;53.552;9.908;2022-08-18T05:23:39;15.37;;;13.97;;
13683;SDS011;6914;53.552;9.908;2022-08-18T05:26:07;14.63;;;13.47;;
13683;SDS011;6914;53.552;9.908;2022-08-18T05:28:34;15.80;;;14.60;;
13683;SDS011;6914;53.552;9.908;2022-08-18T05:31:05;15.60;;;14.00;;
13683;SDS011;6914;53.552;9.908;2022-08-18T05:33:32;16.07;;;14.47;;
13683;SDS011;6914;53.552;9.908;2022-08-18T05:36:01;26.50;;;16.10;;
13683;SDS011;6914;53.552;9.908;2022-08-18T05:38:33;25.47;;;14.20;;
13683;SDS011;6914;53.552;9.908;2022-08-18T05:41:10;15.50;;;13.63;;
13683;SDS011;6914;53.552;9.908;2022-08-18T05:43:39;18.57;;;13.63;;
13683;SDS011;6914;53.552;9.908;2022-08-18T05:46:09;17.50;;;15.60;;
13683;SDS011;6914;53.552;9.908;2022-08-18T05:48:36;18.73;;;14.70;;
13683;SDS011;6914;53.552;9.908;2022-08-18T06:01:13;20.13;;;16.40;;
13683;SDS011;6914;53.552;9.908;2022-08-18T06:03:44;19.70;;;17.33;;
13683;SDS011;6914;53.552;9.908;2022-08-18T06:06:17;18.67;;;16.90;;
13683;SDS011;6914;53.552;9.908;2022-08-18T06:08:48;37.40;;;18.43;;
13683;SDS011;6914;53.552;9.908;2022-08-18T06:11:22;21.07;;;17.93;;
13683;SDS011;6914;53.552;9.908;2022-08-18T06:13:50;21.13;;;18.27;;
13683;SDS011;6914;53.552;9.908;2022-08-18T06:16:19;17.73;;;16.03;;
13683;SDS011;6914;53.552;9.908;2022-08-18T06:18:53;20.40;;;17.63;;
13683;SDS011;6914;53.552;9.908;2022-08-18T06:21:30;20.73;;;18.73;;
13683;SDS011;6914;53.552;9.908;2022-08-18T06:24:05;27.13;;;21.67;;
13683;SDS011;6914;53.552;9.908;2022-08-18T06:26:41;29.93;;;23.20;;
13683;SDS011;6914;53.552;9.908;2022-08-18T06:29:16;31.10;;;25.03;;
13683;SDS011;6914;53.552;9.908;2022-08-18T06:31:55;31.10;;;25.17;;
13683;SDS011;6914;53.552;9.908;2022-08-18T06:34:31;33.40;;;27.63;;
13683;SDS011;6914;53.552;9.908;2022-08-18T06:37:08;38.20;;;28.77;;
13683;SDS011;6914;53.552;9.908;2022-08-18T06:39:41;44.33;;;33.50;;
13683;SDS011;6914;53.552;9.908;2022-08-18T06:42:11;45.73;;;32.30;;
13683;SDS011;6914;53.552;9.908;2022-08-18T06:44:42;54.87;;;35.33;;
13683;SDS011;6914;53.552;9.908;2022-08-18T06:47:15;54.37;;;35.60;;
13683;SDS011;6914;53.552;9.908;2022-08-18T06:49:51;54.10;;;35.83;;
13683;SDS011;6914;53.552;9.908;2022-08-18T06:52:27;55.20;;;38.50;;
13683;SDS011;6914;53.552;9.908;2022-08-18T06:54:57;56.80;;;38.67;;
13683;SDS011;6914;53.552;9.908;2022-08-18T06:57:27;60.20;;;40.03;;
13683;SDS011;6914;53.552;9.908;2022-08-18T06:59:57;64.90;;;40.60;;
13683;SDS011;6914;53.552;9.908;2022-08-18T07:02:30;78.17;;;42.53;;
13683;SDS011;6914;53.552;9.908;2022-08-18T07:05:15;81.47;;;45.80;;
13683;SDS011;6914;53.552;9.908;2022-08-18T07:08:09;81.00;;;46.97;;
13683;SDS011;6914;53.552;9.908;2022-08-18T07:10:40;81.80;;;45.10;;
13683;SDS011;6914;53.552;9.908;2022-08-18T07:13:18;86.30;;;47.50;;
13683;SDS011;6914;53.552;9.908;2022-08-18T07:15:49;80.13;;;47.50;;
13683;SDS011;6914;53.552;9.908;2022-08-18T07:18:22;86.13;;;47.70;;
13683;SDS011;6914;53.552;9.908;2022-08-18T07:20:52;74.67;;;43.13;;
13683;SDS011;6914;53.552;9.908;2022-08-18T07:23:23;77.33;;;45.83;;
13683;SDS011;6914;53.552;9.908;2022-08-18T07:25:58;72.63;;;44.20;;
13683;SDS011;6914;53.552;9.908;2022-08-18T07:28:37;69.93;;;42.97;;
13683;SDS011;6914;53.552;9.908;2022-08-18T07:31:10;80.30;;;41.53;;
13683;SDS011;6914;53.552;9.908;2022-08-18T07:33:47;68.80;;;38.97;;
13683;SDS011;6914;53.552;9.908;2022-08-18T07:36:18;58.70;;;37.00;;
13683;SDS011;6914;53.552;9.908;2022-08-18T07:38:49;57.47;;;37.30;;
13683;SDS011;6914;53.552;9.908;2022-08-18T07:41:22;65.97;;;39.70;;
13683;SDS011;6914;53.552;9.908;2022-08-18T07:43:56;59.70;;;35.93;;
13683;SDS011;6914;53.552;9.908;2022-08-18T07:46:31;71.00;;;37.67;;
13683;SDS011;6914;53.552;9.908;2022-08-18T07:49:04;53.70;;;35.40;;
13683;SDS011;6914;53.552;9.908;2022-08-18T07:51:36;61.77;;;39.67;;
13683;SDS011;6914;53.552;9.908;2022-08-18T07:54:13;78.47;;;42.90;;
13683;SDS011;6914;53.552;9.908;2022-08-18T07:56:49;72.67;;;41.40;;
13683;SDS011;6914;53.552;9.908;2022-08-18T07:59:23;85.37;;;45.50;;
13683;SDS011;6914;53.552;9.908;2022-08-18T08:01:59;94.40;;;47.33;;
13683;SDS011;6914;53.552;9.908;2022-08-18T08:04:41;95.37;;;46.10;;
13683;SDS011;6914;53.552;9.908;2022-08-18T08:07:20;116.47;;;48.63;;
13683;SDS011;6914;53.552;9.908;2022-08-18T08:09:51;107.37;;;50.47;;
13683;SDS011;6914;53.552;9.908;2022-08-18T08:12:27;113.40;;;49.30;;
13683;SDS011;6914;53.552;9.908;2022-08-18T08:15:03;101.37;;;46.97;;
13683;SDS011;6914;53.552;9.908;2022-08-18T08:17:39;101.90;;;44.73;;
13683;SDS011;6914;53.552;9.908;2022-08-18T08:20:18;91.03;;;45.20;;
13683;SDS011;6914;53.552;9.908;2022-08-18T08:22:54;90.43;;;46.27;;
13683;SDS011;6914;53.552;9.908;2022-08-18T08:25:30;89.63;;;43.90;;
13683;SDS011;6914;53.552;9.908;2022-08-18T08:28:05;86.83;;;45.07;;
13683;SDS011;6914;53.552;9.908;2022-08-18T08:30:40;77.93;;;41.70;;
13683;SDS011;6914;53.552;9.908;2022-08-18T08:33:16;81.63;;;40.00;;
13683;SDS011;6914;53.552;9.908;2022-08-18T08:35:51;98.63;;;40.80;;
13683;SDS011;6914;53.552;9.908;2022-08-18T08:38:24;67.50;;;37.40;;
13683;SDS011;6914;53.552;9.908;2022-08-18T08:40:58;77.50;;;38.80;;
13683;SDS011;6914;53.552;9.908;2022-08-18T08:43:29;48.70;;;34.03;;
13683;SDS011;6914;53.552;9.908;2022-08-18T08:46:02;74.77;;;36.30;;
13683;SDS011;6914;53.552;9.908;2022-08-18T08:48:35;62.17;;;37.07;;
13683;SDS011;6914;53.552;9.908;2022-08-18T08:51:15;57.07;;;33.43;;
13683;SDS011;6914;53.552;9.908;2022-08-18T08:53:56;63.63;;;33.40;;
13683;SDS011;6914;53.552;9.908;2022-08-18T08:56:27;56.43;;;36.27;;
13683;SDS011;6914;53.552;9.908;2022-08-18T08:58:57;61.47;;;34.30;;
13683;SDS011;6914;53.552;9.908;2022-08-18T09:01:29;54.20;;;34.73;;
13683;SDS011;6914;53.552;9.908;2022-08-18T09:04:04;59.50;;;33.00;;
13683;SDS011;6914;53.552;9.908;2022-08-18T09:06:46;49.33;;;31.87;;
13683;SDS011;6914;53.552;9.908;2022-08-18T09:09:25;53.67;;;33.83;;
13683;SDS011;6914;53.552;9.908;2022-08-18T09:12:08;46.73;;;30.80;;
13683;SDS011;6914;53.552;9.908;2022-08-18T09:15:01;46.03;;;32.00;;
13683;SDS011;6914;53.552;9.908;2022-08-18T09:23:23;48.40;;;30.83;;
13683;SDS011;6914;53.552;9.908;2022-08-18T09:25:53;53.80;;;32.23;;
13683;SDS011;6914;53.552;9.908;2022-08-18T09:31:17;44.50;;;30.77;;
13683;SDS011;6914;53.552;9.908;2022-08-18T09:33:54;34.43;;;28.13;;
13683;SDS011;6914;53.552;9.908;2022-08-18T09:36:35;35.53;;;28.80;;
13683;SDS011;6914;53.552;9.908;2022-08-18T09:39:19;38.10;;;27.80;;
13683;SDS011;6914;53.552;9.908;2022-08-18T09:42:10;40.57;;;28.20;;
13683;SDS011;6914;53.552;9.908;2022-08-18T09:44:59;36.37;;;28.63;;
13683;SDS011;6914;53.552;9.908;2022-08-18T09:50:55;38.57;;;29.90;;
13683;SDS011;6914;53.552;9.908;2022-08-18T10:06:01;37.80;;;31.20;;
13683;SDS011;6914;53.552;9.908;2022-08-18T10:11:57;33.50;;;26.70;;
13683;SDS011;6914;53.552;9.908;2022-08-18T10:14:53;31.80;;;26.17;;
13683;SDS011;6914;53.552;9.908;2022-08-18T10:17:43;41.10;;;28.20;;
13683;SDS011;6914;53.552;9.908;2022-08-18T10:20:29;32.97;;;26.10;;
13683;SDS011;6914;53.552;9.908;2022-08-18T10:23:03;36.03;;;26.73;;
13683;SDS011;6914;53.552;9.908;2022-08-18T10:25:33;35.87;;;27.87;;
13683;SDS011;6914;53.552;9.908;2022-08-18T10:28:04;34.90;;;26.77;;
13683;SDS011;6914;53.552;9.908;2022-08-18T10:39:19;37.27;;;27.17;;
13683;SDS011;6914;53.552;9.908;2022-08-18T10:41:50;35.30;;;26.47;;
13683;SDS011;6914;53.552;9.908;2022-08-18T10:44:22;36.00;;;29.00;;
13683;SDS011;6914;53.552;9.908;2022-08-18T10:46:50;41.03;;;28.60;;
13683;SDS011;6914;53.552;9.908;2022-08-18T10:49:20;37.23;;;26.27;;
13683;SDS011;6914;53.552;9.908;2022-08-18T10:52:04;31.47;;;25.40;;
13683;SDS011;6914;53.552;9.908;2022-08-18T10:58:11;30.43;;;21.83;;
13683;SDS011;6914;53.552;9.908;2022-08-18T11:01:05;32.43;;;22.17;;
13683;SDS011;6914;53.552;9.908;2022-08-18T11:03:55;25.97;;;22.77;;
13683;SDS011;6914;53.552;9.908;2022-08-18T11:06:27;28.23;;;25.17;;
13683;SDS011;6914;53.552;9.908;2022-08-18T11:08:58;26.60;;;22.63;;
13683;SDS011;6914;53.552;9.908;2022-08-18T11:11:29;30.93;;;20.80;;
13683;SDS011;6914;53.552;9.908;2022-08-18T11:14:00;28.37;;;19.90;;
13683;SDS011;6914;53.552;9.908;2022-08-18T11:16:35;25.10;;;21.23;;
13683;SDS011;6914;53.552;9.908;2022-08-18T11:19:13;26.13;;;20.43;;
13683;SDS011;6914;53.552;9.908;2022-08-18T11:21:42;21.87;;;19.57;;
13683;SDS011;6914;53.552;9.908;2022-08-18T11:24:13;24.20;;;20.47;;
13683;SDS011;6914;53.552;9.908;2022-08-18T11:26:43;23.87;;;20.43;;
13683;SDS011;6914;53.552;9.908;2022-08-18T11:32:02;19.53;;;15.77;;
13683;SDS011;6914;53.552;9.908;2022-08-18T11:34:36;20.33;;;17.70;;
13683;SDS011;6914;53.552;9.908;2022-08-18T11:37:06;24.17;;;18.37;;
13683;SDS011;6914;53.552;9.908;2022-08-18T11:39:42;23.23;;;19.00;;
13683;SDS011;6914;53.552;9.908;2022-08-18T11:42:14;22.00;;;18.17;;
13683;SDS011;6914;53.552;9.908;2022-08-18T11:44:43;20.17;;;15.50;;
13683;SDS011;6914;53.552;9.908;2022-08-18T11:47:13;17.60;;;15.77;;
13683;SDS011;6914;53.552;9.908;2022-08-18T11:49:48;17.13;;;13.80;;
13683;SDS011;6914;53.552;9.908;2022-08-18T11:52:22;18.97;;;15.40;;
13683;SDS011;6914;53.552;9.908;2022-08-18T11:54:57;12.73;;;11.57;;
13683;SDS011;6914;53.552;9.908;2022-08-18T11:57:27;11.77;;;10.60;;
13683;SDS011;6914;53.552;9.908;2022-08-18T11:59:57;12.47;;;11.07;;
13683;SDS011;6914;53.552;9.908;2022-08-18T12:02:24;11.80;;;10.80;;
13683;SDS011;6914;53.552;9.908;2022-08-18T12:04:52;12.20;;;11.20;;
13683;SDS011;6914;53.552;9.908;2022-08-18T12:07:28;13.13;;;12.03;;
13683;SDS011;6914;53.552;9.908;2022-08-18T12:10:13;11.50;;;10.30;;
13683;SDS011;6914;53.552;9.908;2022-08-18T12:12:47;11.17;;;10.07;;
13683;SDS011;6914;53.552;9.908;2022-08-18T12:15:24;12.50;;;11.20;;
13683;SDS011;6914;53.552;9.908;2022-08-18T12:17:53;12.47;;;10.93;;
13683;SDS011;6914;53.552;9.908;2022-08-18T12:20:20;9.47;;;8.77;;
13683;SDS011;6914;53.552;9.908;2022-08-18T12:22:47;9.73;;;8.63;;
13683;SDS011;6914;53.552;9.908;2022-08-18T12:25:17;10.80;;;9.73;;
13683;SDS011;6914;53.552;9.908;2022-08-18T12:27:48;12.50;;;11.20;;
13683;SDS011;6914;53.552;9.908;2022-08-18T12:30:15;9.97;;;9.10;;
13683;SDS011;6914;53.552;9.908;2022-08-18T12:32:43;13.20;;;11.10;;
13683;SDS011;6914;53.552;9.908;2022-08-18T12:35:11;13.00;;;11.30;;
13683;SDS011;6914;53.552;9.908;2022-08-18T12:37:40;11.67;;;10.60;;
13683;SDS011;6914;53.552;9.908;2022-08-18T12:40:11;12.17;;;9.80;;
13683;SDS011;6914;53.552;9.908;2022-08-18T12:42:40;14.00;;;12.33;;
13683;SDS011;6914;53.552;9.908;2022-08-18T12:45:07;13.03;;;10.40;;
13683;SDS011;6914;53.552;9.908;2022-08-18T12:47:36;10.93;;;9.93;;
13683;SDS011;6914;53.552;9.908;2022-08-18T12:50:05;14.13;;;11.17;;
13683;SDS011;6914;53.552;9.908;2022-08-18T12:52:32;12.80;;;11.50;;
13683;SDS011;6914;53.552;9.908;2022-08-18T12:54:59;12.37;;;11.23;;
13683;SDS011;6914;53.552;9.908;2022-08-18T12:57:26;11.53;;;10.33;;
13683;SDS011;6914;53.552;9.908;2022-08-18T12:59:55;13.10;;;12.00;;
13683;SDS011;6914;53.552;9.908;2022-08-18T13:02:22;15.17;;;10.63;;
13683;SDS011;6914;53.552;9.908;2022-08-18T13:04:49;14.03;;;9.47;;
13683;SDS011;6914;53.552;9.908;2022-08-18T13:07:15;15.07;;;11.77;;
13683;SDS011;6914;53.552;9.908;2022-08-18T13:09:43;12.70;;;11.37;;
13683;SDS011;6914;53.552;9.908;2022-08-18T13:12:10;10.13;;;9.23;;
13683;SDS011;6914;53.552;9.908;2022-08-18T13:14:38;9.63;;;8.67;;
13683;SDS011;6914;53.552;9.908;2022-08-18T13:17:06;10.90;;;9.10;;
13683;SDS011;6914;53.552;9.908;2022-08-18T13:19:34;10.93;;;8.83;;
13683;SDS011;6914;53.552;9.908;2022-08-18T13:22:01;12.60;;;11.40;;
13683;SDS011;6914;53.552;9.908;2022-08-18T13:24:28;12.40;;;10.47;;
13683;SDS011;6914;53.552;9.908;2022-08-18T13:26:55;9.20;;;8.43;;
13683;SDS011;6914;53.552;9.908;2022-08-18T13:29:22;10.23;;;9.40;;
13683;SDS011;6914;53.552;9.908;2022-08-18T13:31:50;16.70;;;8.97;;
13683;SDS011;6914;53.552;9.908;2022-08-18T13:34:23;9.97;;;8.97;;
13683;SDS011;6914;53.552;9.908;2022-08-18T13:36:52;14.30;;;12.10;;
13683;SDS011;6914;53.552;9.908;2022-08-18T13:39:20;11.73;;;10.67;;
13683;SDS011;6914;53.552;9.908;2022-08-18T13:41:50;10.47;;;9.60;;
13683;SDS011;6914;53.552;9.908;2022-08-18T13:44:18;10.90;;;10.00;;
13683;SDS011;6914;53.552;9.908;2022-08-18T13:46:46;10.90;;;9.27;;
13683;SDS011;6914;53.552;9.908;2022-08-18T13:49:14;10.73;;;9.73;;
13683;SDS011;6914;53.552;9.908;2022-08-18T13:51:45;11.67;;;9.97;;
13683;SDS011;6914;53.552;9.908;2022-08-18T13:54:15;15.97;;;8.27;;
13683;SDS011;6914;53.552;9.908;2022-08-18T13:56:46;10.80;;;9.80;;
13683;SDS011;6914;53.552;9.908;2022-08-18T13:59:14;11.80;;;10.10;;
13683;SDS011;6914;53.552;9.908;2022-08-18T14:01:41;9.97;;;9.03;;
13683;SDS011;6914;53.552;9.908;2022-08-18T14:04:10;9.20;;;8.40;;
13683;SDS011;6914;53.552;9.908;2022-08-18T14:06:37;9.30;;;8.70;;
13683;SDS011;6914;53.552;9.908;2022-08-18T14:09:06;11.40;;;10.63;;
13683;SDS011;6914;53.552;9.908;2022-08-18T14:11:33;10.70;;;8.70;;
13683;SDS011;6914;53.552;9.908;2022-08-18T14:14:02;11.33;;;10.20;;
13683;SDS011;6914;53.552;9.908;2022-08-18T14:16:30;10.77;;;9.60;;
13683;SDS011;6914;53.552;9.908;2022-08-18T14:18:58;9.77;;;9.07;;
13683;SDS011;6914;53.552;9.908;2022-08-18T14:21:44;11.13;;;10.13;;
13683;SDS011;6914;53.552;9.908;2022-08-18T14:24:32;13.40;;;10.40;;
13683;SDS011;6914;53.552;9.908;2022-08-18T14:27:18;11.30;;;9.90;;
13683;SDS011;6914;53.552;9.908;2022-08-18T14:29:49;10.20;;;9.20;;
13683;SDS011;6914;53.552;9.908;2022-08-18T14:32:17;10.90;;;9.90;;
13683;SDS011;6914;53.552;9.908;2022-08-18T14:34:46;15.60;;;13.97;;
13683;SDS011;6914;53.552;9.908;2022-08-18T14:37:13;15.00;;;13.57;;
13683;SDS011;6914;53.552;9.908;2022-08-18T14:39:41;12.90;;;10.87;;
13683;SDS011;6914;53.552;9.908;2022-08-18T14:42:09;14.30;;;12.30;;
13683;SDS011;6914;53.552;9.908;2022-08-18T14:44:37;13.10;;;11.90;;
13683;SDS011;6914;53.552;9.908;2022-08-18T14:47:04;15.33;;;12.77;;
13683;SDS011;6914;53.552;9.908;2022-08-18T14:49:31;12.20;;;11.10;;
13683;SDS011;6914;53.552;9.908;2022-08-18T14:52:00;12.50;;;11.20;;
13683;SDS011;6914;53.552;9.908;2022-08-18T14:54:27;13.07;;;11.70;;
13683;SDS011;6914;53.552;9.908;2022-08-18T14:56:56;13.97;;;12.87;;
13683;SDS011;6914;53.552;9.908;2022-08-18T14:59:25;14.30;;;13.10;;
13683;SDS011;6914;53.552;9.908;2022-08-18T15:01:54;14.47;;;12.70;;
13683;SDS011;6914;53.552;9.908;2022-08-18T15:04:22;16.10;;;14.53;;
13683;SDS011;6914;53.552;9.908;2022-08-18T15:06:51;16.57;;;13.73;;
13683;SDS011;6914;53.552;9.908;2022-08-18T15:09:19;17.10;;;14.43;;
13683;SDS011;6914;53.552;9.908;2022-08-18T15:11:46;14.67;;;13.30;;
13683;SDS011;6914;53.552;9.908;2022-08-18T15:14:14;12.90;;;11.80;;
13683;SDS011;6914;53.552;9.908;2022-08-18T15:16:41;12.33;;;10.83;;
13683;SDS011;6914;53.552;9.908;2022-08-18T15:19:08;13.87;;;12.63;;
13683;SDS011;6914;53.552;9.908;2022-08-18T15:21:35;14.30;;;10.50;;
13683;SDS011;6914;53.552;9.908;2022-08-18T15:24:31;10.13;;;9.23;;
13683;SDS011;6914;53.552;9.908;2022-08-18T15:27:16;12.83;;;11.67;;
13683;SDS011;6914;53.552;9.908;2022-08-18T15:29:44;11.33;;;10.50;;
13683;SDS011;6914;53.552;9.908;2022-08-18T15:32:11;14.00;;;10.53;;
13683;SDS011;6914;53.552;9.908;2022-08-18T15:34:39;12.50;;;11.03;;
13683;SDS011;6914;53.552;9.908;2022-08-18T15:37:09;16.30;;;14.33;;
13683;SDS011;6914;53.552;9.908;2022-08-18T15:39:35;14.23;;;13.03;;
13683;SDS011;6914;53.552;9.908;2022-08-18T15:42:03;15.57;;;14.00;;
13683;SDS011;6914;53.552;9.908;2022-08-18T15:44:36;13.90;;;12.33;;
13683;SDS011;6914;53.552;9.908;2022-08-18T15:47:04;17.63;;;13.07;;
13683;SDS011;6914;53.552;9.908;2022-08-18T15:49:31;13.20;;;11.90;;
13683;SDS011;6914;53.552;9.908;2022-08-18T15:51:58;15.30;;;12.40;;
13683;SDS011;6914;53.552;9.908;2022-08-18T15:54:25;12.90;;;10.37;;